Time;durP1;ratioP1;P1;durP2;ratioP2;P2;SDS_P1;SDS_P2;PMS_P1;PMS_P2;Temp;Humidity;BMP_temperature;BMP_pressure;BME280_temperature;BME280_humidity;BME280_pressure;Samples;Min_cycle;Max_cycle;Signal;HPM_P1;HPM_P2
2022/09/07 00:01:01;;;;;;;10.02;6.05;;;;;;;21.67;60.21;99657.22;5064681;28;20063;-88
2022/09/07 00:03:28;;;;;;;12.20;6.65;;;;;;;21.68;60.10;99649.97;5055982;28;20400;-88
2022/09/07 00:05:55;;;;;;;12.90;6.40;;;;;;;21.62;60.35;99654.34;5046701;28;20055;-87
2022/09/07 00:08:25;;;;;;;11.77;5.82;;;;;;;21.53;60.66;99652.94;5068440;28;20123;-87
2022/09/07 00:11:01;;;;;;;12.80;6.18;;;;;;;21.37;61.39;99659.59;5061787;28;20048;-87
2022/09/07 00:13:30;;;;;;;8.50;6.03;;;;;;;21.44;60.98;99667.69;5027380;28;20066;-87
2022/09/07 00:15:57;;;;;;;10.23;6.07;;;;;;;21.42;61.00;99675.16;5048684;28;20040;-88
2022/09/07 00:18:24;;;;;;;10.63;6.10;;;;;;;21.49;60.62;99672.47;5059630;28;20044;-88
2022/09/07 00:21:04;;;;;;;9.68;5.93;;;;;;;21.25;61.38;99680.97;5071255;28;20047;-87
2022/09/07 00:23:31;;;;;;;16.17;6.78;;;;;;;21.46;60.82;99676.41;5044496;28;20040;-87
2022/09/07 00:26:03;;;;;;;15.63;7.30;;;;;;;21.51;60.67;99684.72;5062883;28;20040;-87
2022/09/07 00:28:30;;;;;;;10.82;6.40;;;;;;;21.53;60.92;99674.53;5074002;28;20047;-88
2022/09/07 00:30:57;;;;;;;13.88;7.18;;;;;;;21.49;61.45;99677.88;5073826;28;20059;-87
2022/09/07 00:33:24;;;;;;;13.48;6.43;;;;;;;21.38;61.36;99669.38;5059242;28;20043;-87
2022/09/07 00:35:51;;;;;;;18.08;6.50;;;;;;;21.31;61.88;99668.50;5044734;28;20048;-87
2022/09/07 00:38:17;;;;;;;14.60;6.70;;;;;;;21.37;61.90;99669.53;5028924;28;20036;-83
2022/09/07 00:40:44;;;;;;;14.38;5.85;;;;;;;21.38;62.07;99672.06;5058824;28;20046;-83
2022/09/07 00:43:29;;;;;;;17.45;6.60;;;;;;;21.09;62.78;99662.53;5068557;28;20403;-83
2022/09/07 00:45:56;;;;;;;9.20;6.18;;;;;;;21.38;61.33;99649.59;5058680;28;20052;-83
2022/09/07 00:48:28;;;;;;;10.00;6.10;;;;;;;21.30;61.34;99653.34;5052675;28;20048;-83
2022/09/07 00:50:57;;;;;;;10.77;6.75;;;;;;;21.35;61.21;99645.44;5061428;28;20048;-83
2022/09/07 00:53:30;;;;;;;15.98;7.03;;;;;;;21.29;61.27;99643.56;5087855;28;20102;-82
2022/09/07 00:56:02;;;;;;;13.75;6.70;;;;;;;21.27;61.62;99645.69;5052519;28;20051;-83
2022/09/07 00:58:30;;;;;;;14.27;6.70;;;;;;;21.35;61.35;99639.22;5024196;28;20387;-83
2022/09/07 01:00:57;;;;;;;17.80;7.38;;;;;;;21.36;61.43;99639.00;5031965;28;20036;-83
2022/09/07 01:03:27;;;;;;;8.75;6.25;;;;;;;21.29;61.45;99616.56;5059724;28;20051;-83
2022/09/07 01:06:03;;;;;;;12.30;7.00;;;;;;;21.20;61.77;99625.94;5053581;28;20054;-83
2022/09/07 01:08:30;;;;;;;16.25;6.15;;;;;;;21.23;61.49;99614.72;5033229;28;20453;-83
2022/09/07 01:10:59;;;;;;;10.80;6.40;;;;;;;21.18;61.90;99614.53;5044483;28;20090;-83
2022/09/07 01:13:34;;;;;;;13.88;6.55;;;;;;;21.06;62.16;99605.41;5037666;28;20056;-83
2022/09/07 01:16:30;;;;;;;12.60;6.90;;;;;;;21.04;61.98;99613.72;5067743;28;20379;-83
2022/09/07 01:19:22;;;;;;;9.25;6.43;;;;;;;21.06;62.08;99627.81;5039388;28;20407;-83
2022/09/07 01:22:07;;;;;;;9.30;6.32;;;;;;;20.99;62.35;99624.31;5014108;28;20109;-83
2022/09/07 01:24:57;;;;;;;13.57;6.68;;;;;;;21.17;61.84;99626.38;5051152;28;20040;-83
2022/09/07 01:27:45;;;;;;;11.20;6.80;;;;;;;21.02;62.24;99634.69;5004588;28;20043;-83
2022/09/07 01:30:18;;;;;;;15.88;6.72;;;;;;;21.01;62.34;99635.72;5038495;28;20056;-83
2022/09/07 01:33:03;;;;;;;15.05;6.63;;;;;;;21.28;61.29;99627.59;5022882;28;20040;-83
2022/09/07 01:35:35;;;;;;;13.02;6.40;;;;;;;21.21;61.42;99641.09;5043736;28;20076;-83
2022/09/07 01:38:08;;;;;;;11.88;6.85;;;;;;;21.19;61.63;99637.78;5025936;28;20051;-83
2022/09/07 01:40:35;;;;;;;;;;;;;;;20.67;63.45;99647.56;5050610;28;20039;-85
2022/09/07 01:43:06;;;;;;;13.60;6.53;;;;;;;21.03;62.33;99647.13;5061210;28;20293;-86
2022/09/07 01:45:35;;;;;;;10.32;6.72;;;;;;;21.08;62.02;99650.03;5040206;28;20112;-85
2022/09/07 01:48:06;;;;;;;11.55;6.75;;;;;;;21.11;62.19;99643.41;5079367;28;20040;-86
2022/09/07 01:50:43;;;;;;;13.95;6.93;;;;;;;20.87;63.01;99647.56;5061114;28;20044;-86
2022/09/07 01:53:22;;;;;;;11.98;6.93;;;;;;;20.88;62.83;99639.25;5040006;28;20399;-86
2022/09/07 01:55:55;;;;;;;9.88;6.63;;;;;;;21.00;62.38;99637.59;5054148;28;20048;-85
2022/09/07 01:58:37;;;;;;;14.35;7.10;;;;;;;20.79;63.03;99635.94;5027767;28;20396;-86
2022/09/07 02:01:18;;;;;;;14.52;6.55;;;;;;;20.97;62.37;99640.72;5040245;28;20523;-85
2022/09/07 02:03:59;;;;;;;10.40;6.93;;;;;;;20.83;62.89;99643.63;5046147;28;20048;-86
2022/09/07 02:06:39;;;;;;;16.40;6.75;;;;;;;20.86;63.01;99652.13;5046330;28;20119;-85
2022/09/07 02:09:13;;;;;;;13.63;7.30;;;;;;;20.92;62.70;99655.88;5037434;28;20043;-86
2022/09/07 02:11:46;;;;;;;12.85;7.15;;;;;;;20.93;62.81;99660.22;5052156;28;20450;-86
2022/09/07 02:14:33;;;;;;;21.60;7.60;;;;;;;20.88;62.74;99668.94;5088120;28;20051;-86
2022/09/07 02:17:11;;;;;;;14.10;7.30;;;;;;;20.99;62.27;99676.44;4997345;28;20123;-85
2022/09/07 02:19:45;;;;;;;14.27;7.03;;;;;;;20.95;62.31;99702.16;5063242;28;20044;-86
2022/09/07 02:22:15;;;;;;;10.73;7.18;;;;;;;21.01;62.21;99714.84;5057374;28;20097;-86
2022/09/07 02:24:45;;;;;;;12.35;7.40;;;;;;;20.98;62.86;99707.16;5025850;28;20055;-86
2022/09/07 02:27:17;;;;;;;13.38;7.15;;;;;;;20.96;62.81;99717.34;5064595;28;20550;-86
2022/09/07 02:29:43;;;;;;;14.43;7.18;;;;;;;21.01;62.83;99706.75;5046984;28;20040;-86
2022/09/07 02:32:10;;;;;;;18.17;7.25;;;;;;;21.09;62.75;99712.97;5069186;28;20056;-85
2022/09/07 02:34:37;;;;;;;13.38;7.38;;;;;;;21.10;62.85;99712.78;5090171;28;20403;-86
2022/09/07 02:37:05;;;;;;;14.48;7.70;;;;;;;21.13;62.95;99712.34;5075816;28;20033;-85
2022/09/07 02:39:33;;;;;;;11.63;6.95;;;;;;;21.16;62.98;99708.41;5045512;28;20048;-85
2022/09/07 02:42:00;;;;;;;12.23;7.25;;;;;;;21.19;62.77;99713.38;5061283;28;20045;-85
2022/09/07 02:44:33;;;;;;;12.63;7.30;;;;;;;21.17;62.69;99699.28;5070735;28;20048;-86
2022/09/07 02:47:06;;;;;;;14.13;6.63;;;;;;;21.25;62.36;99699.06;5043118;28;20051;-85
2022/09/07 02:49:38;;;;;;;;;;;;;;;20.80;63.68;99698.81;5037034;28;20060;-85
2022/09/07 02:52:20;;;;;;;12.18;6.43;;;;;;;21.01;63.05;99690.56;5051578;28;19924;-86
2022/09/07 02:54:57;;;;;;;17.90;7.22;;;;;;;21.04;63.03;99686.63;5026718;28;20036;-85
2022/09/07 02:58:00;;;;;;;14.32;6.95;;;;;;;20.90;63.37;99693.03;5055990;28;20491;-85
2022/09/07 03:00:30;;;;;;;16.30;7.28;;;;;;;21.05;63.21;99701.75;5031615;28;20051;-86
2022/09/07 03:03:20;;;;;;;18.45;7.13;;;;;;;20.89;63.59;99688.66;5087239;28;20040;-86
2022/09/07 03:05:52;;;;;;;14.18;6.80;;;;;;;21.05;63.36;99682.03;5044822;28;20075;-86
2022/09/07 03:08:31;;;;;;;19.73;7.50;;;;;;;20.99;63.66;99683.72;5091032;28;20049;-86
2022/09/07 03:10:58;;;;;;;14.10;7.60;;;;;;;21.11;63.39;99678.50;5048821;28;20561;-86
2022/09/07 03:13:28;;;;;;;11.90;6.97;;;;;;;21.08;63.24;99678.91;5052413;28;20121;-86
2022/09/07 03:15:56;;;;;;;13.07;7.32;;;;;;;21.12;63.39;99672.06;5044554;28;20109;-85
2022/09/07 03:18:26;;;;;;;11.68;6.63;;;;;;;21.06;64.23;99668.31;5072412;28;20044;-85
2022/09/07 03:20:53;;;;;;;15.68;7.80;;;;;;;21.06;64.39;99673.72;5075283;28;20487;-85
2022/09/07 03:23:22;;;;;;;13.70;7.28;;;;;;;21.01;65.36;99668.97;5047108;28;20052;-86
2022/09/07 03:25:50;;;;;;;15.57;7.20;;;;;;;21.09;64.92;99667.06;5038708;28;20461;-85
2022/09/07 03:28:16;;;;;;;13.38;7.40;;;;;;;21.11;64.46;99668.53;5059539;28;20052;-85
2022/09/07 03:30:46;;;;;;;13.75;7.47;;;;;;;21.12;64.57;99664.81;5068042;28;20055;-85
2022/09/07 03:33:16;;;;;;;14.63;7.63;;;;;;;21.05;65.50;99669.38;5072210;28;20094;-86
2022/09/07 03:35:43;;;;;;;14.45;8.02;;;;;;;21.08;66.00;99676.22;5043682;28;20633;-85
2022/09/07 03:38:10;;;;;;;14.77;8.60;;;;;;;21.08;65.93;99666.25;5033865;28;20044;-85
2022/09/07 03:40:38;;;;;;;14.18;7.18;;;;;;;21.03;65.97;99657.94;5059234;28;20047;-85
2022/09/07 03:43:05;;;;;;;11.02;7.95;;;;;;;21.08;65.70;99663.53;5057380;28;20483;-85
2022/09/07 03:45:32;;;;;;;16.50;8.27;;;;;;;21.06;65.53;99664.78;5026904;28;20044;-85
2022/09/07 03:48:00;;;;;;;17.15;8.10;;;;;;;20.99;66.34;99665.63;5076903;28;20047;-85
2022/09/07 03:50:28;;;;;;;15.48;8.55;;;;;;;21.00;65.72;99653.78;5053230;28;20463;-86
2022/09/07 03:52:55;;;;;;;15.02;7.65;;;;;;;20.99;66.00;99645.91;5069278;28;20059;-87
2022/09/07 03:55:21;;;;;;;17.95;8.48;;;;;;;21.03;65.54;99642.56;5024764;28;20559;-86
2022/09/07 03:57:48;;;;;;;11.68;7.72;;;;;;;20.98;66.22;99644.22;5068789;28;20036;-86
2022/09/07 04:00:15;;;;;;;12.82;7.60;;;;;;;20.95;66.57;99648.19;5053717;28;20116;-86
2022/09/07 04:02:42;;;;;;;12.65;7.78;;;;;;;20.96;66.54;99644.47;5044692;28;20137;-86
2022/09/07 04:05:09;;;;;;;18.58;9.43;;;;;;;21.06;66.42;99652.13;5068079;28;20059;-84
2022/09/07 04:07:40;;;;;;;17.80;8.32;;;;;;;21.00;66.83;99661.06;5076425;28;20037;-86
2022/09/07 04:10:08;;;;;;;15.25;8.05;;;;;;;21.03;66.56;99661.47;5060088;28;20492;-85
2022/09/07 04:12:39;;;;;;;13.93;7.25;;;;;;;20.98;67.27;99666.66;5077167;28;20048;-86
2022/09/07 04:15:06;;;;;;;14.05;8.02;;;;;;;21.07;66.50;99663.78;5051461;28;20043;-85
2022/09/07 04:17:33;;;;;;;16.88;8.52;;;;;;;21.02;66.58;99662.50;5062905;28;21017;-85
2022/09/07 04:20:00;;;;;;;11.88;7.40;;;;;;;21.01;66.70;99671.66;5043168;28;20037;-85
2022/09/07 04:27:10;;;;;;;13.55;7.60;;;;;;;20.81;67.14;99671.66;5061649;28;20078;-85
2022/09/07 04:29:37;;;;;;;15.43;7.50;;;;;;;20.86;67.06;99662.91;5047452;28;20055;-86
2022/09/07 04:32:04;;;;;;;17.60;8.77;;;;;;;20.85;66.84;99655.03;5080294;28;20480;-85
2022/09/07 04:34:31;;;;;;;13.82;8.45;;;;;;;20.79;67.24;99660.22;5085237;28;20051;-86
2022/09/07 04:36:58;;;;;;;14.65;8.10;;;;;;;20.75;67.42;99658.97;5057047;28;20044;-85
2022/09/07 04:39:24;;;;;;;15.25;8.80;;;;;;;20.83;67.09;99660.63;5067683;28;20107;-86
2022/09/07 04:41:51;;;;;;;17.88;8.43;;;;;;;20.87;67.17;99675.38;5047961;28;20412;-85
2022/09/07 04:44:18;;;;;;;17.13;8.52;;;;;;;20.78;67.36;99666.63;5088933;28;20055;-85
2022/09/07 04:46:45;;;;;;;13.48;7.97;;;;;;;20.77;67.38;99658.78;5072919;28;20079;-85
2022/09/07 04:49:12;;;;;;;12.05;7.90;;;;;;;20.81;67.22;99662.69;5066447;28;20367;-86
2022/09/07 04:51:41;;;;;;;16.63;7.72;;;;;;;20.74;67.52;99657.31;5074946;28;20058;-86
2022/09/07 04:54:09;;;;;;;10.18;7.10;;;;;;;20.79;67.33;99660.22;5074811;28;20051;-85
2022/09/07 04:56:35;;;;;;;14.90;7.93;;;;;;;20.75;67.63;99677.84;5081402;28;20496;-85
2022/09/07 04:59:02;;;;;;;14.27;7.88;;;;;;;20.76;67.73;99678.69;5052059;28;20033;-85
2022/09/07 05:01:29;;;;;;;18.70;7.50;;;;;;;20.74;67.96;99670.81;5088309;28;20043;-85
2022/09/07 05:03:58;;;;;;;20.15;8.00;;;;;;;20.83;67.66;99673.28;5066050;28;20040;-85
2022/09/07 05:06:25;;;;;;;14.77;8.80;;;;;;;20.76;67.75;99679.53;5075266;28;20399;-86
2022/09/07 05:08:52;;;;;;;23.02;8.07;;;;;;;20.85;67.66;99688.25;5086817;28;20042;-85
2022/09/07 05:11:21;;;;;;;13.85;7.30;;;;;;;20.80;67.94;99680.75;5072662;28;20052;-85
2022/09/07 05:18:25;;;;;;;20.60;8.10;;;;;;;20.79;68.05;99694.47;5048732;28;20036;-85
2022/09/07 05:20:52;;;;;;;18.45;7.65;;;;;;;20.79;68.26;99698.00;5074662;28;20052;-86
2022/09/07 05:23:19;;;;;;;18.45;7.85;;;;;;;20.83;68.10;99695.72;5077025;28;20506;-85
2022/09/07 05:25:46;;;;;;;17.20;8.20;;;;;;;20.80;68.00;99694.25;5082281;28;20044;-85
2022/09/07 05:28:13;;;;;;;13.65;7.43;;;;;;;20.90;67.66;99698.44;5066566;28;20044;-85
2022/09/07 05:30:45;;;;;;;15.63;8.13;;;;;;;20.92;67.76;99699.06;5041435;28;20128;-85
2022/09/07 05:33:32;;;;;;;17.88;8.10;;;;;;;20.91;67.80;99694.69;5015995;28;20036;-85
2022/09/07 05:36:21;;;;;;;13.63;8.73;;;;;;;20.97;67.61;99688.47;5013246;28;20448;-85
2022/09/07 05:38:48;;;;;;;14.38;8.95;;;;;;;21.00;67.55;99694.28;5091316;28;20055;-85
2022/09/07 05:41:16;;;;;;;14.40;8.35;;;;;;;20.91;67.99;99692.81;5076506;28;20384;-85
2022/09/07 05:43:44;;;;;;;19.23;8.60;;;;;;;20.92;68.34;99701.75;5090042;28;20410;-85
2022/09/07 05:46:31;;;;;;;15.60;8.73;;;;;;;20.98;68.03;99696.34;5036570;28;20491;-85
2022/09/07 05:48:59;;;;;;;17.67;8.48;;;;;;;20.93;68.35;99708.81;5075858;28;20040;-85
2022/09/07 05:51:26;;;;;;;20.17;9.90;;;;;;;20.96;68.12;99706.53;5061020;28;20496;-88
2022/09/07 05:53:54;;;;;;;24.25;8.65;;;;;;;20.99;68.22;99711.53;5053709;28;20051;-89
2022/09/07 05:56:21;;;;;;;18.88;8.93;;;;;;;21.15;67.72;99714.84;5029747;28;20457;-90
2022/09/07 06:02:55;;;;;;;14.00;7.88;;;;;;;21.03;67.76;99720.84;5027049;28;20374;-89
2022/09/07 06:05:22;;;;;;;17.27;9.00;;;;;;;21.10;67.61;99720.03;5030279;28;20044;-89
2022/09/07 06:07:49;;;;;;;22.90;8.60;;;;;;;21.12;67.34;99715.28;5058166;28;20036;-89
2022/09/07 06:10:16;;;;;;;19.55;8.82;;;;;;;21.15;67.51;99722.94;5063483;28;20043;-89
2022/09/07 06:13:03;;;;;;;21.77;10.27;;;;;;;21.09;67.53;99730.03;4999035;28;20067;-90
2022/09/07 06:15:32;;;;;;;15.32;9.40;;;;;;;21.15;67.36;99736.47;5072187;28;20040;-89
2022/09/07 06:17:59;;;;;;;20.75;9.18;;;;;;;21.13;67.55;99739.34;5035623;28;20059;-90
2022/09/07 06:20:28;;;;;;;19.73;9.40;;;;;;;21.28;67.03;99736.44;5064630;28;20048;-90
2022/09/07 06:22:55;;;;;;;17.20;9.60;;;;;;;21.32;66.91;99737.72;5062735;28;20051;-89
2022/09/07 06:25:21;;;;;;;15.02;9.23;;;;;;;21.34;66.92;99727.50;5059490;28;20407;-88
2022/09/07 06:27:48;;;;;;;16.98;8.85;;;;;;;21.35;67.10;99728.34;5072047;28;20050;-91
2022/09/07 06:30:15;;;;;;;18.40;9.18;;;;;;;21.45;66.83;99731.50;5044408;28;20051;-88
2022/09/07 06:32:42;;;;;;;19.02;8.45;;;;;;;21.45;66.93;99736.91;5059329;28;20143;-89
2022/09/07 06:35:10;;;;;;;17.52;8.70;;;;;;;21.57;66.39;99746.00;5040273;28;20060;-89
2022/09/07 06:37:38;;;;;;;21.98;9.15;;;;;;;21.66;66.09;99749.34;5061014;28;20571;-89
2022/09/07 06:40:06;;;;;;;16.98;9.65;;;;;;;21.64;66.29;99746.00;5066071;28;20051;-89
2022/09/07 06:42:33;;;;;;;20.83;10.30;;;;;;;21.67;66.17;99742.88;5067452;28;20098;-89
2022/09/07 06:45:03;;;;;;;20.13;9.55;;;;;;;21.65;66.33;99736.84;5045534;28;20044;-88
2022/09/07 06:47:29;;;;;;;24.17;10.68;;;;;;;21.70;66.01;99737.06;5065558;28;20051;-89
2022/09/07 06:49:56;;;;;;;16.88;9.32;;;;;;;21.73;66.13;99733.09;5036524;28;20106;-89
2022/09/07 06:52:23;;;;;;;18.85;9.80;;;;;;;21.79;65.80;99735.81;5073098;28;20045;-89
2022/09/07 06:54:50;;;;;;;17.95;9.27;;;;;;;21.84;65.88;99737.88;5079624;28;20051;-89
2022/09/07 06:57:25;;;;;;;21.55;10.05;;;;;;;21.87;65.83;99737.44;5049018;28;20407;-89
2022/09/07 06:59:52;;;;;;;21.73;9.23;;;;;;;21.93;65.67;99743.88;5053137;28;20101;-89
2022/09/07 07:02:19;;;;;;;19.58;9.63;;;;;;;21.93;65.68;99738.47;5047300;28;20044;-89
2022/09/07 07:04:46;;;;;;;16.17;9.07;;;;;;;21.95;65.75;99739.91;5082177;28;20036;-89
2022/09/07 07:07:13;;;;;;;25.02;10.07;;;;;;;22.03;65.49;99742.41;5047376;28;20040;-87
2022/09/07 07:09:40;;;;;;;21.20;9.32;;;;;;;22.06;65.59;99736.56;5021920;28;20048;-88
2022/09/07 07:12:08;;;;;;;25.08;9.15;;;;;;;22.15;65.44;99736.31;5071624;28;20041;-89
2022/09/07 07:14:35;;;;;;;23.00;8.73;;;;;;;22.15;65.38;99722.81;5063122;28;20423;-88
2022/09/07 07:17:06;;;;;;;16.63;7.68;;;;;;;22.19;65.48;99732.16;5078118;28;20036;-88
2022/09/07 07:19:33;;;;;;;22.75;8.13;;;;;;;22.23;65.34;99725.28;5046130;28;20119;-89
2022/09/07 07:25:47;;;;;;;14.75;8.27;;;;;;;22.26;64.77;99731.13;5011447;28;20044;-89
2022/09/07 07:28:14;;;;;;;23.25;8.40;;;;;;;22.29;65.04;99724.44;5061361;28;20105;-88
2022/09/07 07:31:02;;;;;;;16.35;9.35;;;;;;;22.31;65.01;99723.19;5026953;28;20055;-89
2022/09/07 07:33:36;;;;;;;17.80;8.85;;;;;;;22.36;64.85;99724.41;5046726;28;20086;-89
2022/09/07 07:36:17;;;;;;;22.13;10.50;;;;;;;22.26;64.71;99723.00;5078754;28;20177;-88
2022/09/07 07:38:47;;;;;;;16.60;7.72;;;;;;;22.36;64.72;99724.41;5040881;28;20041;-88
2022/09/07 07:41:33;;;;;;;25.20;9.02;;;;;;;22.39;64.50;99713.13;5016639;28;20476;-88
2022/09/07 07:44:20;;;;;;;16.63;8.63;;;;;;;22.40;64.71;99718.34;5028960;28;20052;-88
2022/09/07 07:46:49;;;;;;;18.15;9.13;;;;;;;22.44;64.69;99725.00;5057919;28;20128;-88
2022/09/07 07:49:16;;;;;;;18.48;8.52;;;;;;;22.51;64.56;99727.66;5029775;28;20040;-88
2022/09/07 07:51:43;;;;;;;15.68;7.38;;;;;;;22.50;64.32;99729.53;5075267;28;20396;-88
2022/09/07 07:54:32;;;;;;;13.65;6.70;;;;;;;22.56;64.18;99733.25;4996244;28;20041;-89
2022/09/07 07:56:59;;;;;;;15.45;6.90;;;;;;;22.63;64.00;99728.63;5032708;28;20106;-89
2022/09/07 07:59:26;;;;;;;9.52;5.07;;;;;;;22.70;63.72;99725.91;5064005;28;20380;-87
2022/09/07 08:01:53;;;;;;;15.27;5.40;;;;;;;22.77;63.47;99723.97;5037455;28;20044;-88
2022/09/07 08:04:21;;;;;;;15.35;5.55;;;;;;;22.84;63.25;99723.91;5070152;28;20102;-87
2022/09/07 08:06:48;;;;;;;14.30;4.88;;;;;;;22.90;62.86;99734.72;5063691;28;20068;-87
2022/09/07 08:09:16;;;;;;;17.05;5.00;;;;;;;22.95;62.56;99742.19;5044284;28;20058;-85
2022/09/07 08:11:42;;;;;;;13.60;4.80;;;;;;;23.00;62.75;99736.97;5057876;28;20040;-84
2022/09/07 08:14:09;;;;;;;18.33;4.72;;;;;;;23.04;62.45;99749.00;5072579;28;20040;-87
2022/09/07 08:16:36;;;;;;;18.92;5.05;;;;;;;23.07;62.14;99745.88;5079673;28;20462;-84
2022/09/07 08:19:04;;;;;;;11.75;4.25;;;;;;;23.08;62.17;99747.53;5071336;28;20564;-85
2022/09/07 08:21:31;;;;;;;17.30;5.25;;;;;;;23.15;61.73;99748.31;5071567;28;20048;-84
2022/09/07 08:23:58;;;;;;;18.05;5.43;;;;;;;23.19;61.91;99748.69;5092766;28;20044;-85
2022/09/07 08:26:26;;;;;;;9.05;4.57;;;;;;;23.23;61.77;99749.06;5071338;28;20056;-84
2022/09/07 08:28:52;;;;;;;16.30;5.05;;;;;;;23.23;61.49;99749.94;5080778;28;20369;-85
2022/09/07 08:31:19;;;;;;;8.77;4.55;;;;;;;23.27;61.79;99753.03;5077670;28;20043;-85
2022/09/07 08:33:46;;;;;;;14.65;4.60;;;;;;;23.28;61.58;99747.38;5085875;28;20403;-86
2022/09/07 08:36:15;;;;;;;8.98;5.05;;;;;;;23.32;61.49;99748.59;5091623;28;20044;-86
2022/09/07 08:38:42;;;;;;;17.83;4.78;;;;;;;23.38;61.43;99752.28;5087939;28;20071;-85
2022/09/07 08:41:32;;;;;;;16.00;4.80;;;;;;;23.33;61.01;99741.28;5060372;28;20048;-86
2022/09/07 08:44:01;;;;;;;13.40;4.88;;;;;;;23.42;61.39;99753.50;5051670;28;20052;-85
2022/09/07 08:46:33;;;;;;;11.50;4.15;;;;;;;23.45;60.95;99752.25;5066340;28;20048;-86
2022/09/07 08:49:02;;;;;;;12.18;4.35;;;;;;;23.49;61.23;99754.28;5062143;28;20075;-91
2022/09/07 08:51:36;;;;;;;9.23;4.57;;;;;;;23.49;60.85;99748.03;5076959;28;20052;-92
2022/09/07 08:54:04;;;;;;;14.57;4.78;;;;;;;23.54;60.98;99745.50;5060791;28;20044;-90
2022/09/07 08:56:35;;;;;;;12.48;4.68;;;;;;;23.55;60.49;99741.72;5067298;28;20041;-90
2022/09/07 08:59:13;;;;;;;10.45;4.25;;;;;;;23.53;60.22;99750.06;5016194;28;20033;-92
2022/09/07 09:01:41;;;;;;;9.55;4.13;;;;;;;23.59;60.30;99751.91;5032216;28;20457;-89
2022/09/07 09:04:13;;;;;;;15.40;4.85;;;;;;;23.60;60.04;99756.25;5026393;28;20454;-90
2022/09/07 09:06:47;;;;;;;13.68;4.70;;;;;;;23.62;60.09;99751.44;5031313;28;20043;-90
2022/09/07 09:09:20;;;;;;;;;;;;;;;23.52;60.43;99755.72;5052018;28;20040;-91
2022/09/07 09:11:59;;;;;;;10.70;4.78;;;;;;;23.66;60.05;99749.13;5052901;28;20316;-90
2022/09/07 09:14:51;;;;;;;14.82;4.35;;;;;;;23.58;59.90;99744.84;5055164;28;20072;-92
2022/09/07 09:17:34;;;;;;;12.20;4.53;;;;;;;23.64;59.65;99743.09;5019383;28;20399;-91
2022/09/07 09:20:08;;;;;;;13.57;4.43;;;;;;;23.69;59.47;99751.41;4983801;28;20606;-90
2022/09/07 09:22:35;;;;;;;7.78;4.20;;;;;;;23.76;59.62;99743.22;5029273;28;20451;-90
2022/09/07 09:25:20;;;;;;;11.55;4.30;;;;;;;23.72;59.40;99745.56;5056300;28;20052;-90
2022/09/07 09:27:48;;;;;;;13.70;4.53;;;;;;;23.82;59.60;99750.47;5003808;28;20064;-90
2022/09/07 09:30:20;;;;;;;11.25;5.20;;;;;;;23.83;59.24;99741.25;5076646;28;20040;-91
2022/09/07 09:32:49;;;;;;;18.20;4.63;;;;;;;23.85;59.71;99738.34;5056719;28;20040;-91
2022/09/07 09:35:30;;;;;;;11.52;4.63;;;;;;;23.82;59.75;99745.88;5030924;28;20040;-90
2022/09/07 09:37:58;;;;;;;7.68;3.92;;;;;;;23.90;59.67;99743.91;5031371;28;20123;-91
2022/09/07 09:40:28;;;;;;;12.57;4.72;;;;;;;23.91;59.49;99724.69;5067276;28;20111;-90
2022/09/07 09:42:58;;;;;;;13.63;5.07;;;;;;;23.95;59.19;99722.38;5067762;28;20078;-90
2022/09/07 09:45:28;;;;;;;8.48;4.68;;;;;;;23.98;59.09;99728.16;5058153;28;20075;-89
2022/09/07 09:47:56;;;;;;;15.23;4.60;;;;;;;24.01;59.52;99724.16;5051178;28;20119;-89
2022/09/07 09:50:29;;;;;;;15.55;6.70;;;;;;;24.03;59.28;99722.88;5024704;28;20377;-88
2022/09/07 09:53:23;;;;;;;11.13;4.57;;;;;;;24.04;59.09;99727.28;4967009;28;20089;-88
2022/09/07 09:55:54;;;;;;;16.90;4.88;;;;;;;24.11;58.38;99707.38;5010917;28;20080;-88
2022/09/07 09:58:36;;;;;;;10.93;4.25;;;;;;;24.12;58.33;99722.56;5008826;28;20049;-88
2022/09/07 10:01:31;;;;;;;10.73;4.45;;;;;;;24.19;58.17;99720.63;4949223;28;20497;-88
2022/09/07 10:04:23;;;;;;;13.88;4.93;;;;;;;24.15;58.32;99708.59;5015087;28;20053;-89
2022/09/07 10:06:51;;;;;;;13.13;4.30;;;;;;;24.25;58.07;99709.69;4973690;28;20536;-89
2022/09/07 10:09:21;;;;;;;14.50;4.10;;;;;;;24.30;57.95;99716.31;4983381;28;25264;-90
2022/09/07 10:11:53;;;;;;;9.93;4.10;;;;;;;24.31;57.53;99698.97;4978780;28;20079;-93
2022/09/07 10:19:00;;;;;;;9.82;4.40;;;;;;;24.34;57.55;99669.50;4965842;28;20054;-90
2022/09/07 10:21:28;;;;;;;8.15;3.70;;;;;;;24.40;57.31;99689.44;4958722;28;20137;-89
2022/09/07 10:24:03;;;;;;;12.02;4.57;;;;;;;24.37;56.93;99698.88;4978748;28;20037;-91
2022/09/07 10:26:33;;;;;;;14.10;4.43;;;;;;;24.44;56.74;99696.09;4994761;28;20050;-90
2022/09/07 10:29:29;;;;;;;11.60;3.65;;;;;;;24.35;56.94;99682.03;5006634;28;20115;-90
2022/09/07 10:32:01;;;;;;;8.20;3.58;;;;;;;24.42;56.56;99679.19;4953712;28;20045;-92
2022/09/07 10:39:05;;;;;;;10.20;3.60;;;;;;;24.43;56.10;99678.97;4986056;28;20506;-89
2022/09/07 10:41:50;;;;;;;9.82;4.15;;;;;;;24.40;55.69;99678.59;5000292;28;20129;-93
2022/09/07 10:44:39;;;;;;;7.75;3.83;;;;;;;24.43;55.99;99678.16;5053556;28;20131;-89
2022/09/07 10:47:15;;;;;;;13.05;4.75;;;;;;;24.44;55.38;99679.78;5018420;28;20043;-91
2022/09/07 10:49:51;;;;;;;12.75;4.72;;;;;;;24.50;55.88;99672.63;5058596;28;20395;-90
2022/09/07 10:52:45;;;;;;;11.18;3.63;;;;;;;24.48;55.79;99667.47;5027874;28;20060;-91
2022/09/07 11:00:00;;;;;;;11.45;3.80;;;;;;;24.46;56.31;99672.28;5034428;28;20035;-92
2022/09/07 11:02:58;;;;;;;9.15;4.63;;;;;;;24.52;56.16;99665.94;5031612;28;20070;-93
2022/09/07 11:05:56;;;;;;;11.55;4.60;;;;;;;24.54;55.92;99663.00;4980621;28;20396;-90
2022/09/07 11:08:40;;;;;;;15.23;5.13;;;;;;;24.57;55.59;99667.94;5047342;28;20037;-93
2022/09/07 11:11:40;;;;;;;11.75;4.88;;;;;;;24.66;55.18;99656.53;4992602;28;20047;-91
2022/09/07 11:14:32;;;;;;;12.52;5.18;;;;;;;24.68;55.42;99653.59;5018922;28;20129;-93
2022/09/07 11:17:04;;;;;;;9.70;4.20;;;;;;;24.71;55.34;99650.41;5003869;28;20206;-90
2022/09/07 11:20:03;;;;;;;11.65;4.38;;;;;;;24.70;55.37;99654.16;5056418;28;20107;-91
2022/09/07 11:22:48;;;;;;;8.65;4.30;;;;;;;24.79;55.41;99660.94;4958902;28;20054;-93
2022/09/07 11:25:29;;;;;;;8.68;4.35;;;;;;;24.83;55.01;99644.97;4985148;28;20055;-91
2022/09/07 11:28:16;;;;;;;8.75;4.15;;;;;;;24.85;54.86;99637.44;5050873;28;20051;-91
2022/09/07 11:31:07;;;;;;;11.23;3.85;;;;;;;24.88;54.70;99640.53;4993187;28;20048;-92
2022/09/07 11:33:38;;;;;;;14.10;4.35;;;;;;;24.92;54.31;99649.03;4975090;28;20063;-91
2022/09/07 11:36:09;;;;;;;7.95;4.35;;;;;;;24.91;54.61;99640.06;5006726;28;20037;-90
2022/09/07 11:38:41;;;;;;;5.82;3.95;;;;;;;24.95;54.42;99634.97;5044916;28;20040;-92
2022/09/07 11:41:25;;;;;;;11.95;3.65;;;;;;;24.87;54.05;99630.72;5020787;28;20046;-91
2022/09/07 11:44:14;;;;;;;7.85;4.10;;;;;;;24.89;53.89;99631.31;4997734;28;20125;-91
2022/09/07 11:46:44;;;;;;;10.75;4.40;;;;;;;25.02;53.38;99629.44;5015320;28;20479;-92
2022/09/07 11:49:14;;;;;;;10.25;3.97;;;;;;;25.05;53.00;99626.25;5040778;28;20041;-88
2022/09/07 11:51:51;;;;;;;12.57;4.72;;;;;;;25.03;52.54;99623.75;5038077;28;20040;-90
2022/09/07 11:54:31;;;;;;;10.18;3.60;;;;;;;25.13;52.20;99626.69;5047483;28;20476;-85
2022/09/07 11:57:38;;;;;;;20.77;4.75;;;;;;;25.02;52.00;99621.28;5037309;28;20045;-86
2022/09/07 12:00:10;;;;;;;7.18;3.85;;;;;;;25.09;52.18;99632.88;5034680;28;20044;-87
2022/09/07 12:03:05;;;;;;;7.82;3.67;;;;;;;25.04;52.33;99621.88;5062003;28;20109;-87
2022/09/07 12:06:13;;;;;;;7.03;3.78;;;;;;;25.06;51.70;99619.72;5002406;28;20063;-87
2022/09/07 12:08:52;;;;;;;7.85;3.72;;;;;;;25.20;51.76;99612.22;4986583;28;20062;-88
2022/09/07 12:12:00;;;;;;;9.75;3.88;;;;;;;25.22;51.80;99604.66;5041747;28;20106;-88
2022/09/07 12:19:19;;;;;;;9.77;3.90;;;;;;;25.25;50.54;99606.91;5033832;28;20101;-90
2022/09/07 12:21:52;;;;;;;5.10;3.33;;;;;;;25.33;50.36;99591.03;5063237;28;20123;-89
2022/09/07 12:24:37;;;;;;;9.45;3.80;;;;;;;25.32;50.05;99602.16;5056094;28;20044;-94
2022/09/07 12:27:19;;;;;;;10.00;3.67;;;;;;;25.28;47.13;99604.53;5003308;28;20120;-90
2022/09/07 12:30:09;;;;;;;8.60;3.67;;;;;;;25.36;48.85;99594.34;5058304;28;20040;-92